»·PEaware :: ASA255 KSEA-KPDX

ASA255 :: KSEA-KPDX

FLIGHT INFORMATION

Flight Status: Arrived
Operator:
Alaska Airlines
More flights by this operator :: More flights under this callsign
Pilot: Kyle M. (9350)
Aircraft: AIRBUS A320
(A320)
More flights by this aircraft type
Origin: KSEA Seattle-Tacoma Intl
United States
Destination: KPDX Portland Intl
United States
More flights between these airports :: More routes between these airports
Route: +SEA7 BUWZO KRATR2
File this flight plan on PilotEdge
Remarks: CptCanada - Youtube Livestreams!
Altitude:
(Current/Filed)
19,000ft
Speed:
(Current/Filed)
425kts
Departed: 26-Sep-18 08:30 PM
Arrived: 26-Sep-18 09:00 PM
Distance/Time
Traveled:
112nm/0:30
Distance/Time
To Go:
Arrived

Flight Plot

Page will automatically refresh every two minutes.

Flight plan parsing failed; only flown route is shown


Map Options




Map Legend


Flown Route
Filed Route
Departure Airport
Arrival Airport
Navaid (VOR, NDB)
Fix

Horizontal Profiles

Position Reports

Time Latitude Longitude Heading Altitude Ground
Speed
26-Sep-18 20:04 47.448363 -122.303559 39 442ft 0kts
26-Sep-18 20:05 47.448363 -122.303559 39 442ft 0kts
26-Sep-18 20:06 47.448363 -122.303559 39 442ft 0kts
26-Sep-18 20:07 47.448363 -122.303559 39 442ft 0kts
26-Sep-18 20:08 47.448363 -122.303559 39 442ft 0kts
26-Sep-18 20:09 47.448363 -122.303559 39 442ft 0kts
26-Sep-18 20:10 47.448363 -122.303559 39 442ft 0kts
26-Sep-18 20:11 47.448363 -122.303559 39 442ft 0kts
26-Sep-18 20:12 47.448363 -122.303559 39 442ft 0kts
26-Sep-18 20:13 47.448363 -122.303559 39 442ft 0kts
26-Sep-18 20:14 47.448363 -122.303559 39 442ft 0kts
26-Sep-18 20:15 47.448363 -122.303559 39 442ft 0kts
26-Sep-18 20:16 47.448363 -122.303559 39 442ft 0kts
26-Sep-18 20:17 47.448363 -122.303559 39 442ft 0kts
26-Sep-18 20:18 47.448363 -122.303559 39 442ft 0kts
26-Sep-18 20:19 47.448363 -122.303559 39 442ft 0kts
26-Sep-18 20:20 47.448277 -122.303658 37 442ft 2kts
26-Sep-18 20:21 47.447809 -122.304027 347 442ft 2kts
26-Sep-18 20:22 47.447566 -122.303657 286 442ft 0kts
26-Sep-18 20:23 47.447567 -122.303658 286 442ft 0kts
26-Sep-18 20:24 47.447646 -122.304593 272 442ft 0kts
26-Sep-18 20:25 47.447181 -122.306285 184 442ft 8kts
26-Sep-18 20:26 47.443805 -122.306337 180 442ft 15kts
26-Sep-18 20:27 47.439710 -122.306374 180 442ft 14kts
26-Sep-18 20:28 47.438068 -122.309493 270 442ft 8kts
26-Sep-18 20:29 47.438068 -122.309868 269 442ft 0kts
26-Sep-18 20:30 47.438068 -122.309868 269 442ft 0kts
26-Sep-18 20:31 47.439043 -122.311235 0 442ft 17kts
26-Sep-18 20:32 47.473143 -122.310180 0 1955ft 165kts
26-Sep-18 20:33 47.521504 -122.310630 1 4334ft 199kts
26-Sep-18 20:34 47.571284 -122.355912 277 6477ft 279kts
26-Sep-18 20:35 47.541859 -122.464783 227 9719ft 294kts
26-Sep-18 20:36 47.460031 -122.476172 166 11461ft 347kts
26-Sep-18 20:37 47.358047 -122.441854 166 12623ft 397kts
26-Sep-18 20:38 47.248900 -122.405935 166 14603ft 408kts
26-Sep-18 20:39 47.137432 -122.369599 166 16380ft 418kts
26-Sep-18 20:40 47.023246 -122.332574 166 17991ft 426kts
26-Sep-18 20:41 46.904833 -122.309651 179 19179ft 435kts
26-Sep-18 20:42 46.783508 -122.309721 179 19193ft 448kts
26-Sep-18 20:43 46.659247 -122.309670 179 19193ft 448kts
26-Sep-18 20:44 46.540091 -122.309564 179 18498ft 405kts
26-Sep-18 20:45 46.432650 -122.309548 179 16546ft 372kts
26-Sep-18 20:46 46.331755 -122.309589 179 14567ft 359kts
26-Sep-18 20:47 46.234767 -122.321975 200 12742ft 350kts
26-Sep-18 20:48 46.145161 -122.372092 201 10900ft 342kts
26-Sep-18 20:49 46.061426 -122.418188 200 9809ft 292kts
26-Sep-18 20:50 45.989989 -122.456562 201 8786ft 266kts
26-Sep-18 20:51 45.919159 -122.484777 168 7515ft 266kts
26-Sep-18 20:52 45.848061 -122.462082 167 6325ft 262kts
26-Sep-18 20:53 45.778462 -122.439925 167 5692ft 251kts
26-Sep-18 20:54 45.711192 -122.418606 167 4668ft 244kts
26-Sep-18 20:55 45.645782 -122.397939 167 3822ft 235kts
26-Sep-18 20:56 45.596090 -122.346088 125 3139ft 231kts
26-Sep-18 20:57 45.547034 -122.313240 219 2998ft 211kts
26-Sep-18 20:58 45.534337 -122.389828 270 2326ft 199kts
26-Sep-18 20:59 45.542918 -122.458559 290 1893ft 148kts
26-Sep-18 21:00 45.561464 -122.510151 300 907ft 144kts
26-Sep-18 21:01 45.580957 -122.560156 299 204ft 144kts
26-Sep-18 21:02 45.592105 -122.590178 275 38ft 11kts
26-Sep-18 21:03 45.592333 -122.594759 300 38ft 14kts
26-Sep-18 21:04 45.591508 -122.599054 230 38ft 15kts
26-Sep-18 21:05 45.589470 -122.601455 127 38ft 13kts
26-Sep-18 21:06 45.588541 -122.598180 32 38ft 4kts
26-Sep-18 21:07 45.589027 -122.597930 15 38ft 0kts

Navigation Log

Ident Type
Flight plan parsing failed, navigation log unavailable